Time,TemperatureF,DewpointF,PressureIn,WindDirection,WindDirectionDegrees,WindSpeedMPH,WindSpeedGustMPH,Humidity,HourlyPrecipIn,Conditions,Clouds,dailyrainin,SoftwareType,DateUTC
2013-11-11 00:21:00,39.0,36.0,30.04,SE,128,0.0,0.0,88,0.00,,,0.00,,2013-11-11 08:21:00,
2013-11-11 00:42:00,40.0,37.0,30.04,SE,128,0.0,0.0,88,0.00,,,0.00,,2013-11-11 08:42:00,
2013-11-11 00:52:00,40.0,37.0,30.04,SE,128,0.0,0.0,88,0.00,,,0.00,,2013-11-11 08:52:00,
2013-11-11 01:02:00,40.0,37.0,30.04,SE,128,0.0,0.0,88,0.00,,,0.00,,2013-11-11 09:02:00,
2013-11-11 01:22:00,41.0,38.0,29.91,SE,126,0.0,0.0,88,0.00,,,0.00,,2013-11-11 09:22:00,
2013-11-11 01:33:00,41.0,38.0,29.91,SE,126,0.0,0.0,88,0.00,,,0.00,,2013-11-11 09:33:00,
2013-11-11 01:53:00,40.0,37.0,30.05,SE,128,0.0,0.0,89,0.00,,,0.00,,2013-11-11 09:53:00,
2013-11-11 02:13:00,41.0,38.0,30.05,SE,128,0.0,0.0,90,0.00,,,0.00,,2013-11-11 10:13:00,
2013-11-11 02:23:00,41.0,38.0,30.05,SE,128,0.0,0.0,90,0.00,,,0.00,,2013-11-11 10:23:00,
2013-11-11 02:52:00,42.0,39.0,29.96,SE,126,0.0,0.0,89,0.00,,,0.00,,2013-11-11 10:52:00,
2013-11-11 03:12:00,43.0,40.0,30.05,SE,128,0.0,0.0,89,0.00,,,0.00,,2013-11-11 11:12:00,
2013-11-11 03:21:00,43.0,40.0,30.05,SE,128,0.0,0.0,89,0.00,,,0.00,,2013-11-11 11:21:00,
2013-11-11 03:41:00,44.0,41.0,29.99,SE,128,0.0,0.0,89,0.00,,,0.00,,2013-11-11 11:41:00,
2013-11-11 03:52:00,44.0,41.0,29.99,SE,128,0.0,0.0,89,0.00,,,0.00,,2013-11-11 11:52:00,
2013-11-11 04:21:00,46.0,43.0,30.02,SE,128,0.0,0.0,90,0.00,,,0.00,,2013-11-11 12:21:00,
2013-11-11 04:41:00,47.0,44.0,30.01,SE,128,0.0,0.0,90,0.00,,,0.00,,2013-11-11 12:41:00,
2013-11-11 04:51:00,47.0,44.0,30.01,SE,128,0.0,0.0,90,0.00,,,0.00,,2013-11-11 12:51:00,
2013-11-11 05:21:00,49.0,46.0,29.93,SE,126,0.0,0.0,90,0.00,,,0.00,,2013-11-11 13:21:00,
2013-11-11 05:41:00,47.0,44.0,30.02,SE,128,0.0,2.0,90,0.00,,,0.00,,2013-11-11 13:41:00,
2013-11-11 05:52:00,47.0,44.0,30.03,SE,128,0.0,0.0,90,0.00,,,0.00,,2013-11-11 13:52:00,
2013-11-11 06:11:00,49.0,46.0,29.96,SE,128,0.0,0.0,90,0.00,,,0.00,,2013-11-11 14:11:00,
2013-11-11 06:21:00,49.0,46.0,29.96,SE,128,0.0,0.0,90,0.00,,,0.00,,2013-11-11 14:21:00,
2013-11-11 06:42:00,49.0,46.0,29.94,SE,145,0.0,1.0,90,0.00,,,0.00,,2013-11-11 14:42:00,
2013-11-11 06:52:00,49.0,46.0,29.94,SE,145,0.0,1.0,90,0.00,,,0.00,,2013-11-11 14:52:00,
2013-11-11 07:21:00,47.0,45.0,30.04,SSE,147,0.0,0.0,91,0.00,,,0.00,,2013-11-11 15:21:00,
2013-11-11 07:43:00,47.0,45.0,30.04,SSE,147,0.0,0.0,91,0.00,,,0.00,,2013-11-11 15:43:00,
2013-11-11 07:53:00,47.0,45.0,30.04,SSE,147,0.0,0.0,91,0.00,,,0.00,,2013-11-11 15:53:00,
2013-11-11 08:23:00,47.0,45.0,30.04,SSW,209,0.0,1.0,91,0.00,,,0.00,,2013-11-11 16:23:00,
2013-11-11 08:53:00,47.0,44.0,30.05,SSE,155,0.0,3.0,90,0.00,,,0.00,,2013-11-11 16:53:00,
2013-11-11 09:22:00,48.0,45.0,30.05,SSE,155,0.0,0.0,91,0.00,,,0.00,,2013-11-11 17:22:00,
2013-11-11 09:52:00,50.0,47.0,29.99,South,177,0.0,2.0,90,0.00,,,0.00,,2013-11-11 17:52:00,
2013-11-11 10:23:00,50.0,47.0,29.85,ESE,104,0.0,2.0,88,0.00,,,0.00,,2013-11-11 18:23:00,
2013-11-11 10:42:00,54.0,50.0,29.98,North,357,0.0,0.0,85,0.00,,,0.00,,2013-11-11 18:42:00,
2013-11-11 10:52:00,54.0,50.0,29.98,North,357,0.0,0.0,85,0.00,,,0.00,,2013-11-11 18:52:00,
2013-11-11 11:01:00,54.0,50.0,29.98,North,357,0.0,0.0,85,0.00,,,0.00,,2013-11-11 19:01:00,
2013-11-11 11:21:00,56.0,49.0,30.06,ENE,68,0.0,2.0,76,0.00,,,0.00,,2013-11-11 19:21:00,
2013-11-11 11:42:00,58.0,48.0,30.06,North,350,0.0,2.0,69,0.00,,,0.00,,2013-11-11 19:42:00,
2013-11-11 11:53:00,58.0,48.0,30.06,North,350,0.0,2.0,69,0.00,,,0.00,,2013-11-11 19:53:00,
2013-11-11 12:02:00,58.0,48.0,30.06,North,350,0.0,2.0,69,0.00,,,0.00,,2013-11-11 20:02:00,
2013-11-11 12:21:00,63.0,48.0,30.05,NW,321,0.0,3.0,59,0.00,,,0.00,,2013-11-11 20:21:00,
2013-11-11 12:42:00,65.0,50.0,30.03,NE,49,0.0,1.0,58,0.00,,,0.00,,2013-11-11 20:42:00,
2013-11-11 12:52:00,65.0,50.0,30.03,NE,49,0.0,1.0,58,0.00,,,0.00,,2013-11-11 20:52:00,
2013-11-11 13:21:00,67.0,48.0,30.02,NNW,332,0.0,1.0,51,0.00,,,0.00,,2013-11-11 21:21:00,
2013-11-11 13:43:00,67.0,47.0,30.01,NW,315,0.0,0.0,49,0.00,,,0.00,,2013-11-11 21:43:00,
2013-11-11 13:55:00,66.0,46.0,30.01,NW,315,0.0,1.0,49,0.00,,,0.00,,2013-11-11 21:55:00,
2013-11-11 14:23:00,66.0,47.0,30.01,North,350,0.0,0.0,51,0.00,,,0.00,,2013-11-11 22:23:00,
2013-11-11 14:53:00,67.0,47.0,30.01,North,350,0.0,1.0,49,0.00,,,0.00,,2013-11-11 22:53:00,
2013-11-11 15:12:00,67.0,47.0,30.00,North,350,0.0,0.0,49,0.00,,,0.00,,2013-11-11 23:12:00,
2013-11-11 15:22:00,67.0,47.0,30.00,North,350,0.0,0.0,49,0.00,,,0.00,,2013-11-11 23:22:00,
2013-11-11 15:33:00,67.0,47.0,30.00,North,350,0.0,0.0,49,0.00,,,0.00,,2013-11-11 23:33:00,
2013-11-11 15:42:00,67.0,47.0,30.00,North,350,0.0,0.0,49,0.00,,,0.00,,2013-11-11 23:42:00,
2013-11-11 15:53:00,68.0,46.0,30.01,SW,236,0.0,2.0,45,0.00,,,0.00,,2013-11-11 23:53:00,
2013-11-11 16:11:00,67.0,46.0,29.96,SW,234,0.0,0.0,46,0.00,,,0.00,,2013-11-12 00:11:00,
2013-11-11 16:22:00,67.0,46.0,29.96,SW,234,0.0,0.0,46,0.00,,,0.00,,2013-11-12 00:22:00,
2013-11-11 16:32:00,67.0,46.0,29.96,SW,234,0.0,0.0,46,0.00,,,0.00,,2013-11-12 00:32:00,
2013-11-11 16:52:00,65.0,47.0,30.03,SW,236,0.0,0.0,53,0.00,,,0.00,,2013-11-12 00:52:00,
2013-11-11 17:11:00,63.0,46.0,30.01,SW,236,0.0,0.0,54,0.00,,,0.00,,2013-11-12 01:11:00,
2013-11-11 17:21:00,63.0,46.0,30.01,SW,236,0.0,0.0,54,0.00,,,0.00,,2013-11-12 01:21:00,
2013-11-11 17:42:00,61.0,47.0,30.01,SW,236,0.0,0.0,60,0.00,,,0.00,,2013-11-12 01:42:00,
2013-11-11 17:52:00,61.0,47.0,30.01,SW,236,0.0,0.0,60,0.00,,,0.00,,2013-11-12 01:52:00,
2013-11-11 18:21:00,59.0,47.0,30.01,SW,236,0.0,0.0,65,0.00,,,0.00,,2013-11-12 02:21:00,
2013-11-11 18:42:00,57.0,46.0,30.03,SW,236,0.0,0.0,67,0.00,,,0.00,,2013-11-12 02:42:00,
2013-11-11 18:52:00,57.0,46.0,30.03,SW,236,0.0,0.0,67,0.00,,,0.00,,2013-11-12 02:52:00,
2013-11-11 19:02:00,57.0,46.0,30.03,SW,236,0.0,0.0,67,0.00,,,0.00,,2013-11-12 03:02:00,
2013-11-11 19:21:00,57.0,48.0,29.96,SW,234,0.0,0.0,72,0.00,,,0.00,,2013-11-12 03:21:00,
2013-11-11 19:45:00,55.0,46.0,30.05,SW,236,0.0,0.0,72,0.00,,,0.00,,2013-11-12 03:45:00,
2013-11-11 19:54:00,55.0,46.0,30.05,SW,236,0.0,0.0,72,0.00,,,0.00,,2013-11-12 03:54:00,
2013-11-11 20:13:00,54.0,46.0,30.07,SW,236,0.0,0.0,74,0.00,,,0.00,,2013-11-12 04:13:00,
2013-11-11 20:24:00,54.0,46.0,30.07,SW,236,0.0,0.0,74,0.00,,,0.00,,2013-11-12 04:24:00,
2013-11-11 20:43:00,54.0,47.0,30.07,SW,236,0.0,0.0,76,0.00,,,0.00,,2013-11-12 04:43:00,
2013-11-11 20:53:00,53.0,46.0,30.09,SW,236,0.0,0.0,77,0.00,,,0.00,,2013-11-12 04:53:00,
2013-11-11 21:03:00,53.0,46.0,30.09,SW,236,0.0,0.0,77,0.00,,,0.00,,2013-11-12 05:03:00,
2013-11-11 21:23:00,53.0,46.0,30.18,SW,236,0.0,0.0,77,0.00,,,0.00,,2013-11-12 05:23:00,
2013-11-11 21:44:00,52.0,46.0,30.10,SW,236,0.0,0.0,79,0.00,,,0.00,,2013-11-12 05:44:00,
2013-11-11 21:54:00,52.0,46.0,30.10,SW,236,0.0,0.0,79,0.00,,,0.00,,2013-11-12 05:54:00,
2013-11-11 22:02:00,52.0,46.0,30.10,SW,236,0.0,0.0,79,0.00,,,0.00,,2013-11-12 06:02:00,
2013-11-11 22:22:00,52.0,46.0,29.96,SW,234,0.0,0.0,79,0.00,,,0.00,,2013-11-12 06:22:00,
2013-11-11 22:52:00,54.0,48.0,29.98,SW,234,0.0,0.0,79,0.00,,,0.00,,2013-11-12 06:52:00,
2013-11-11 23:02:00,54.0,48.0,29.98,SW,234,0.0,0.0,79,0.00,,,0.00,,2013-11-12 07:02:00,
2013-11-11 23:21:00,51.0,45.0,30.10,SW,236,0.0,0.0,80,0.00,,,0.00,,2013-11-12 07:21:00,
2013-11-11 23:32:00,51.0,45.0,30.10,SW,236,0.0,0.0,80,0.00,,,0.00,,2013-11-12 07:32:00,
2013-11-11 23:42:00,51.0,45.0,30.10,SW,236,0.0,0.0,80,0.00,,,0.00,,2013-11-12 07:42:00,
2013-11-11 23:52:00,52.0,46.0,30.01,SW,234,0.0,0.0,81,0.00,,,0.00,,2013-11-12 07:52:00,